createdAt,value
2018-01-22T00:02:05.565Z,81.90
2018-01-22T00:04:31.786Z,81.90
2018-01-22T00:06:58.099Z,81.90
2018-01-22T00:09:24.323Z,82.20
2018-01-22T00:11:50.514Z,81.90
2018-01-22T00:14:17.096Z,81.80
2018-01-22T00:16:43.331Z,81.80
2018-01-22T00:19:09.638Z,81.60
2018-01-22T00:21:35.875Z,81.40
2018-01-22T00:24:02.112Z,81.10
2018-01-22T00:26:28.356Z,81.30
2018-01-22T00:28:54.640Z,80.90
2018-01-22T00:31:20.832Z,80.90
2018-01-22T00:33:47.101Z,81.10
2018-01-22T00:36:13.322Z,81.30
2018-01-22T00:38:39.555Z,81.20
2018-01-22T00:41:05.775Z,81.10
2018-01-22T00:43:32.017Z,81.50
2018-01-22T00:45:58.246Z,82.00
2018-01-22T00:48:24.481Z,81.90
2018-01-22T00:50:50.696Z,82.20
2018-01-22T00:53:16.923Z,82.70
2018-01-22T00:55:43.102Z,83.10
2018-01-22T00:58:09.308Z,82.90
2018-01-22T01:00:35.566Z,82.90
2018-01-22T01:03:02.226Z,82.60
2018-01-22T01:05:28.473Z,82.60
2018-01-22T01:07:54.690Z,82.20
2018-01-22T01:10:20.950Z,83.10
2018-01-22T01:12:47.165Z,83.50
2018-01-22T01:15:13.385Z,82.90
2018-01-22T01:17:39.590Z,82.90
2018-01-22T01:20:06.179Z,83.00
2018-01-22T01:22:32.429Z,83.00
2018-01-22T01:24:58.642Z,83.00
2018-01-22T01:27:24.869Z,83.30
2018-01-22T01:29:51.110Z,83.40
2018-01-22T01:32:17.639Z,83.10
2018-01-22T01:34:43.830Z,83.20
2018-01-22T01:37:10.061Z,82.80
2018-01-22T01:39:36.307Z,82.50
2018-01-22T01:42:03.428Z,82.50
2018-01-22T01:44:29.687Z,83.00
2018-01-22T01:46:55.942Z,83.10
2018-01-22T01:49:22.187Z,83.30
2018-01-22T01:51:48.413Z,83.70
2018-01-22T01:54:14.671Z,83.60
2018-01-22T01:56:40.869Z,83.60
2018-01-22T01:59:07.082Z,83.90
2018-01-22T02:01:33.324Z,84.40
2018-01-22T02:03:59.591Z,84.50
2018-01-22T02:06:25.832Z,84.40
2018-01-22T02:08:52.064Z,84.00
2018-01-22T02:11:18.297Z,83.90
2018-01-22T02:13:44.517Z,83.90
2018-01-22T02:16:10.747Z,83.30
2018-01-22T02:18:36.970Z,83.30
2018-01-22T02:21:03.228Z,83.20
2018-01-22T02:23:29.992Z,83.60
2018-01-22T02:25:56.600Z,83.80
2018-01-22T02:28:22.815Z,83.80
2018-01-22T02:30:49.029Z,84.00
2018-01-22T02:33:15.272Z,84.00
2018-01-22T02:35:41.541Z,83.90
2018-01-22T02:38:07.781Z,84.40
2018-01-22T02:40:33.986Z,83.90
2018-01-22T02:43:00.201Z,84.30
2018-01-22T02:45:26.416Z,84.10
2018-01-22T02:47:52.661Z,84.20
2018-01-22T02:50:18.913Z,84.00
2018-01-22T02:52:45.208Z,84.10
2018-01-22T02:55:11.824Z,83.80
2018-01-22T02:57:38.048Z,83.90
2018-01-22T03:00:04.336Z,84.00
2018-01-22T03:02:30.938Z,84.20
2018-01-22T03:04:57.183Z,84.30
2018-01-22T03:07:23.407Z,84.30
2018-01-22T03:09:49.657Z,84.00
2018-01-22T03:12:16.252Z,83.70
2018-01-22T03:14:42.480Z,83.70
2018-01-22T03:17:08.890Z,83.60
2018-01-22T03:19:42.007Z,83.70
2018-01-22T03:22:08.269Z,84.30
2018-01-22T03:24:34.509Z,84.00
2018-01-22T03:27:00.720Z,83.70
2018-01-22T03:29:26.957Z,83.80
2018-01-22T03:31:53.180Z,83.60
2018-01-22T03:34:19.397Z,83.40
2018-01-22T03:36:46.185Z,83.70
2018-01-22T03:39:12.385Z,83.30
2018-01-22T03:41:38.995Z,83.60
2018-01-22T03:44:05.233Z,83.60
2018-01-22T03:46:31.477Z,83.30
2018-01-22T03:48:58.097Z,83.50
2018-01-22T03:51:24.350Z,83.50
2018-01-22T03:53:50.598Z,83.80
2018-01-22T03:56:16.803Z,84.00
2018-01-22T03:58:43.027Z,84.10
2018-01-22T04:01:09.624Z,83.30
2018-01-22T04:03:35.871Z,83.40
2018-01-22T04:06:02.061Z,83.80
2018-01-22T04:08:28.312Z,83.60
2018-01-22T04:10:54.543Z,83.20
2018-01-22T04:13:20.746Z,83.40
2018-01-22T04:15:46.978Z,83.50
2018-01-22T04:18:13.788Z,83.80
2018-01-22T04:20:40.029Z,83.40
2018-01-22T04:23:06.285Z,83.70
2018-01-22T04:25:32.531Z,84.30
2018-01-22T04:27:58.726Z,84.20
2018-01-22T04:30:24.991Z,83.90
2018-01-22T04:32:51.220Z,83.90
2018-01-22T04:35:17.883Z,84.10
2018-01-22T04:37:44.134Z,84.10
2018-01-22T04:40:10.355Z,84.40
2018-01-22T04:42:36.564Z,84.30
2018-01-22T04:45:02.796Z,84.20
2018-01-22T04:47:29.377Z,84.20
2018-01-22T04:49:55.654Z,84.20
2018-01-22T04:52:22.236Z,84.50
2018-01-22T04:54:48.468Z,84.50
2018-01-22T04:57:14.783Z,84.40
2018-01-22T04:59:41.023Z,84.40
2018-01-22T05:02:07.199Z,84.20
2018-01-22T05:04:33.820Z,84.40
2018-01-22T05:07:00.060Z,84.40
2018-01-22T05:09:26.665Z,84.50
2018-01-22T05:11:52.880Z,84.50
2018-01-22T05:14:19.096Z,84.30
2018-01-22T05:16:46.649Z,84.40
2018-01-22T05:19:12.895Z,84.70
2018-01-22T05:21:39.119Z,84.90
2018-01-22T05:24:05.377Z,84.90
2018-01-22T05:26:31.613Z,84.80
2018-01-22T05:28:57.834Z,84.70
2018-01-22T05:31:24.044Z,85.20
2018-01-22T05:33:50.268Z,85.00
2018-01-22T05:36:16.476Z,84.80
2018-01-22T05:38:42.748Z,85.00
2018-01-22T05:41:08.939Z,85.10
2018-01-22T05:43:35.172Z,84.90
2018-01-22T05:46:01.399Z,84.50
2018-01-22T05:48:27.623Z,84.20
2018-01-22T05:50:53.902Z,84.00
2018-01-22T05:53:20.768Z,83.90
2018-01-22T05:55:47.047Z,83.90
2018-01-22T05:58:13.266Z,83.90
2018-01-22T06:00:39.918Z,83.80
2018-01-22T06:03:06.108Z,83.80
2018-01-22T06:05:32.308Z,83.80
2018-01-22T06:07:58.565Z,84.20
2018-01-22T06:10:24.826Z,84.50
2018-01-22T06:12:51.107Z,84.40
2018-01-22T06:15:17.371Z,84.60
2018-01-22T06:17:43.661Z,84.30
2018-01-22T06:20:09.907Z,84.20
2018-01-22T06:22:36.204Z,84.30
2018-01-22T06:25:02.792Z,83.90
2018-01-22T06:27:29.014Z,84.00
2018-01-22T06:29:55.248Z,83.90
2018-01-22T06:32:21.432Z,83.90
2018-01-22T06:34:47.661Z,83.70
2018-01-22T06:37:13.865Z,84.30
2018-01-22T06:39:40.106Z,84.20
2018-01-22T06:42:06.341Z,84.00
2018-01-22T06:44:32.541Z,84.20
2018-01-22T06:46:59.064Z,84.00
2018-01-22T06:49:25.279Z,83.70
2018-01-22T06:51:52.544Z,83.60
2018-01-22T06:54:18.754Z,83.40
2018-01-22T06:56:45.007Z,83.40
2018-01-22T06:59:11.585Z,83.20
2018-01-22T07:01:37.790Z,83.20
2018-01-22T07:04:03.987Z,83.40
2018-01-22T07:06:30.173Z,83.70
2018-01-22T07:08:56.420Z,83.80
2018-01-22T07:11:22.625Z,84.00
2018-01-22T07:13:48.842Z,83.90
2018-01-22T07:16:15.416Z,83.40
2018-01-22T07:18:41.657Z,83.40
2018-01-22T07:21:07.901Z,83.70
2018-01-22T07:23:34.095Z,84.10
2018-01-22T07:26:00.343Z,84.10
2018-01-22T07:28:26.536Z,83.90
2018-01-22T07:30:52.764Z,83.60
2018-01-22T07:33:18.959Z,83.20
2018-01-22T07:35:45.171Z,82.90
2018-01-22T07:38:11.407Z,82.70
2018-01-22T07:40:37.637Z,82.90
2018-01-22T07:43:03.885Z,82.90
2018-01-22T07:45:30.073Z,83.20
2018-01-22T07:47:56.385Z,83.10
2018-01-22T07:50:22.610Z,82.80
2018-01-22T07:52:48.838Z,82.60
2018-01-22T07:55:15.067Z,82.40
2018-01-22T07:57:41.315Z,82.20
2018-01-22T08:00:08.672Z,82.10
2018-01-22T08:02:34.888Z,82.20
2018-01-22T08:05:01.121Z,82.30
2018-01-22T08:07:27.337Z,82.40
2018-01-22T08:09:53.545Z,82.10
2018-01-22T08:12:19.847Z,82.10
2018-01-22T08:14:46.059Z,82.50
2018-01-22T08:17:12.308Z,82.10
2018-01-22T08:19:38.522Z,82.60
2018-01-22T08:22:04.770Z,82.90
2018-01-22T08:24:31.019Z,83.20
2018-01-22T08:26:57.250Z,83.50
2018-01-22T08:29:23.461Z,84.80
2018-01-22T08:31:49.683Z,84.80
2018-01-22T08:34:15.910Z,84.40
2018-01-22T08:36:42.135Z,84.20
2018-01-22T08:39:08.373Z,83.70
2018-01-22T08:41:34.587Z,83.10
2018-01-22T08:44:00.824Z,83.10
2018-01-22T08:46:27.022Z,83.00
2018-01-22T08:48:53.227Z,82.80
2018-01-22T08:51:19.449Z,83.30
2018-01-22T08:53:45.786Z,83.70
2018-01-22T08:56:12.804Z,84.80
2018-01-22T08:58:39.060Z,85.20
2018-01-22T09:01:05.362Z,84.60
2018-01-22T09:03:31.693Z,84.70
2018-01-22T09:05:57.920Z,84.80
2018-01-22T09:08:24.159Z,85.90
2018-01-22T09:10:50.424Z,86.00
2018-01-22T09:13:16.667Z,86.30
2018-01-22T09:15:43.233Z,87.00
2018-01-22T09:18:09.512Z,87.00
2018-01-22T09:20:35.752Z,86.70
2018-01-22T09:23:02.382Z,86.80
2018-01-22T09:25:28.996Z,86.60
2018-01-22T09:27:55.231Z,86.60
2018-01-22T09:30:21.833Z,85.80
2018-01-22T09:32:48.057Z,85.80
2018-01-22T09:35:14.303Z,86.70
2018-01-22T09:37:40.514Z,87.10
2018-01-22T09:40:06.746Z,87.30
2018-01-22T09:42:32.991Z,87.60
2018-01-22T09:44:59.255Z,88.30
2018-01-22T09:47:25.893Z,88.00
2018-01-22T09:49:52.575Z,87.90
2018-01-22T09:52:18.787Z,87.90
2018-01-22T09:54:45.006Z,88.70
2018-01-22T09:57:11.590Z,89.60
2018-01-22T09:59:37.860Z,89.60
2018-01-22T10:02:04.452Z,90.10
2018-01-22T10:04:30.656Z,90.10
2018-01-22T10:06:56.897Z,89.90
2018-01-22T10:09:23.164Z,89.90
2018-01-22T10:11:49.851Z,90.80
2018-01-22T10:14:16.085Z,90.90
2018-01-22T10:16:42.455Z,90.40
2018-01-22T10:19:08.807Z,91.30
2018-01-22T10:21:35.171Z,91.40
2018-01-22T10:24:01.448Z,91.60
2018-01-22T10:26:28.551Z,91.50
2018-01-22T10:28:54.743Z,91.40
2018-01-22T10:31:21.325Z,90.90
2018-01-22T10:33:47.612Z,91.00
2018-01-22T10:36:13.870Z,91.10
2018-01-22T10:38:40.121Z,89.80
2018-01-22T10:41:06.341Z,89.60
2018-01-22T10:43:32.543Z,88.70
2018-01-22T10:45:58.806Z,88.50
2018-01-22T10:48:25.038Z,88.40
2018-01-22T10:50:51.385Z,88.20
2018-01-22T10:53:17.631Z,88.60
2018-01-22T10:55:43.869Z,88.50
2018-01-22T10:58:10.134Z,88.40
2018-01-22T11:00:36.425Z,88.40
2018-01-22T11:03:03.024Z,90.30
2018-01-22T11:05:29.318Z,90.30
2018-01-22T11:07:55.550Z,90.40
2018-01-22T11:10:21.773Z,90.60
2018-01-22T11:12:48.017Z,91.30
2018-01-22T11:15:14.261Z,91.20
2018-01-22T11:17:40.529Z,91.20
2018-01-22T11:20:06.748Z,91.30
2018-01-22T11:22:33.078Z,91.20
2018-01-22T11:24:59.309Z,92.10
2018-01-22T11:27:25.888Z,92.40
2018-01-22T11:29:52.198Z,92.40
2018-01-22T11:32:18.519Z,92.40
2018-01-22T11:34:45.125Z,91.10
2018-01-22T11:37:11.351Z,91.10
2018-01-22T11:39:37.597Z,90.60
2018-01-22T11:42:03.812Z,89.90
2018-01-22T11:44:30.027Z,90.40
2018-01-22T11:46:56.279Z,91.10
2018-01-22T11:49:22.507Z,91.30
2018-01-22T11:51:49.372Z,91.90
2018-01-22T11:54:15.610Z,91.80
2018-01-22T11:56:41.884Z,92.00
2018-01-22T11:59:08.464Z,91.30
2018-01-22T12:01:34.865Z,91.30
2018-01-22T12:04:01.130Z,91.60
2018-01-22T12:06:27.370Z,91.00
2018-01-22T12:08:53.613Z,91.20
2018-01-22T12:11:19.801Z,91.60
2018-01-22T12:13:46.061Z,92.00
2018-01-22T12:16:12.284Z,92.20
2018-01-22T12:18:38.543Z,91.60
2018-01-22T12:21:04.843Z,90.60
2018-01-22T12:23:31.226Z,90.00
2018-01-22T12:25:58.364Z,90.00
2018-01-22T12:28:24.657Z,90.80
2018-01-22T12:30:50.921Z,90.30
2018-01-22T12:33:17.135Z,90.50
2018-01-22T12:35:43.395Z,91.10
2018-01-22T12:38:09.616Z,91.10
2018-01-22T12:40:35.876Z,91.10
2018-01-22T12:43:02.077Z,90.30
2018-01-22T12:45:28.300Z,90.00
2018-01-22T12:47:54.562Z,90.30
2018-01-22T12:50:20.824Z,90.30
2018-01-22T12:52:47.041Z,90.20
2018-01-22T12:55:13.259Z,89.20
2018-01-22T12:57:39.612Z,88.60
2018-01-22T13:00:05.877Z,87.70
2018-01-22T13:02:32.082Z,88.20
2018-01-22T13:04:58.293Z,89.00
2018-01-22T13:07:24.509Z,88.60
2018-01-22T13:09:50.756Z,88.60
2018-01-22T13:12:17.043Z,89.00
2018-01-22T13:14:44.878Z,89.20
2018-01-22T13:17:11.158Z,89.30
2018-01-22T13:19:37.418Z,90.20
2018-01-22T13:22:03.635Z,90.60
2018-01-22T13:24:30.571Z,90.60
2018-01-22T13:26:56.932Z,90.00
2018-01-22T13:29:23.197Z,90.00
2018-01-22T13:31:49.796Z,89.70
2018-01-22T13:34:16.070Z,89.70
2018-01-22T13:36:42.304Z,89.00
2018-01-22T13:39:08.541Z,89.60
2018-01-22T13:41:34.806Z,90.40
2018-01-22T13:44:01.753Z,90.30
2018-01-22T13:46:28.030Z,90.40
2018-01-22T13:48:54.297Z,90.90
2018-01-22T13:51:20.503Z,91.00
2018-01-22T13:53:46.778Z,90.70
2018-01-22T13:56:13.001Z,89.70
2018-01-22T13:58:39.242Z,89.70
2018-01-22T14:01:05.495Z,89.80
2018-01-22T14:03:31.740Z,89.10
2018-01-22T14:05:57.989Z,89.90
2018-01-22T14:08:24.240Z,89.70
2018-01-22T14:10:50.475Z,89.60
2018-01-22T14:13:16.770Z,90.20
2018-01-22T14:15:43.255Z,89.60
2018-01-22T14:18:09.491Z,89.80
2018-01-22T14:20:36.138Z,89.00
2018-01-22T14:23:02.448Z,89.10
2018-01-22T14:25:29.037Z,88.30
2018-01-22T14:27:55.290Z,88.30
2018-01-22T14:30:21.600Z,88.10
2018-01-22T14:32:47.816Z,87.40
2018-01-22T14:35:14.050Z,87.30
2018-01-22T14:37:40.382Z,86.80
2018-01-22T14:40:06.629Z,86.40
2018-01-22T14:42:32.885Z,86.00
2018-01-22T14:44:59.533Z,85.80
2018-01-22T14:47:26.233Z,85.80
2018-01-22T14:49:52.580Z,85.80
2018-01-22T14:52:18.903Z,85.80
2018-01-22T14:54:45.117Z,85.70
2018-01-22T14:57:11.397Z,85.60
2018-01-22T14:59:38.045Z,86.50
2018-01-22T15:02:04.314Z,86.50
2018-01-22T15:04:30.533Z,86.70
2018-01-22T15:06:56.769Z,86.40
2018-01-22T15:09:22.999Z,85.80
2018-01-22T15:11:49.379Z,85.50
2018-01-22T15:14:16.005Z,85.20
2018-01-22T15:16:42.613Z,85.00
2018-01-22T15:19:08.868Z,85.00
2018-01-22T15:21:35.464Z,86.80
2018-01-22T15:24:01.744Z,86.90
2018-01-22T15:26:28.342Z,88.10
2018-01-22T15:28:54.600Z,88.10
2018-01-22T15:31:20.830Z,88.10
2018-01-22T15:33:47.467Z,87.00
2018-01-22T15:36:14.138Z,86.70
2018-01-22T15:38:40.376Z,86.70
2018-01-22T15:41:06.676Z,86.50
2018-01-22T15:43:32.911Z,87.20
2018-01-22T15:45:59.137Z,87.00
2018-01-22T15:48:25.394Z,86.80
2018-01-22T15:50:51.654Z,86.10
2018-01-22T15:53:17.919Z,85.70
2018-01-22T15:55:44.535Z,84.90
2018-01-22T15:58:10.762Z,84.90
2018-01-22T16:00:37.391Z,84.70
2018-01-22T16:03:03.694Z,84.70
2018-01-22T16:05:29.896Z,84.90
2018-01-22T16:07:56.173Z,85.10
2018-01-22T16:10:22.424Z,85.60
2018-01-22T16:12:48.675Z,85.50
2018-01-22T16:15:15.260Z,85.70
2018-01-22T16:17:42.503Z,85.50
2018-01-22T16:20:08.740Z,85.10
2018-01-22T16:22:35.621Z,85.20
2018-01-22T16:25:03.177Z,84.80
2018-01-22T16:27:29.791Z,84.70
2018-01-22T16:29:56.014Z,84.80
2018-01-22T16:32:22.237Z,84.80
2018-01-22T16:34:48.524Z,85.00
2018-01-22T16:37:14.728Z,85.00
2018-01-22T16:39:41.346Z,85.00
2018-01-22T16:42:07.604Z,85.00
2018-01-22T16:44:33.900Z,85.60
2018-01-22T16:47:06.163Z,86.20
2018-01-22T16:49:32.625Z,86.70
2018-01-22T16:51:59.348Z,85.60
2018-01-22T16:54:25.624Z,85.60
2018-01-22T16:56:51.905Z,85.20
2018-01-22T16:59:18.113Z,85.20
2018-01-22T17:01:44.380Z,85.20
2018-01-22T17:04:11.054Z,85.40
2018-01-22T17:06:37.276Z,85.40
2018-01-22T17:09:03.612Z,85.60
2018-01-22T17:11:29.865Z,85.70
2018-01-22T17:13:56.112Z,85.50
2018-01-22T17:16:22.337Z,85.60
2018-01-22T17:18:48.585Z,85.40
2018-01-22T17:21:15.189Z,85.10
2018-01-22T17:23:41.472Z,85.10
2018-01-22T17:26:07.735Z,85.20
2018-01-22T17:28:34.018Z,85.60
2018-01-22T17:31:00.310Z,86.00
2018-01-22T17:33:26.547Z,86.10
2018-01-22T17:35:52.803Z,86.20
2018-01-22T17:38:19.422Z,86.80
2018-01-22T17:40:46.032Z,87.60
2018-01-22T17:43:12.777Z,87.60
2018-01-22T17:45:38.992Z,86.90
2018-01-22T17:48:05.235Z,86.30
2018-01-22T17:50:31.470Z,85.90
2018-01-22T17:52:58.380Z,86.40
2018-01-22T17:55:24.596Z,88.60
2018-01-22T17:57:50.961Z,89.30
2018-01-22T18:00:17.237Z,89.20
2018-01-22T18:02:43.539Z,89.80
2018-01-22T18:05:09.798Z,89.70
2018-01-22T18:07:36.043Z,89.20
2018-01-22T18:10:02.342Z,88.70
2018-01-22T18:12:28.980Z,88.50
2018-01-22T18:14:55.610Z,89.10
2018-01-22T18:17:22.821Z,89.10
2018-01-22T18:19:49.057Z,88.80
2018-01-22T18:22:16.070Z,88.30
2018-01-22T18:24:42.341Z,88.20
2018-01-22T18:27:08.660Z,88.20
2018-01-22T18:29:34.884Z,88.40
2018-01-22T18:32:01.165Z,88.30
2018-01-22T18:34:27.774Z,87.90
2018-01-22T18:36:54.101Z,87.90
2018-01-22T18:39:20.423Z,88.30
2018-01-22T18:41:46.683Z,88.00
2018-01-22T18:44:13.290Z,89.00
2018-01-22T18:46:39.568Z,89.00
2018-01-22T18:49:05.808Z,88.70
2018-01-22T18:51:32.077Z,88.50
2018-01-22T18:53:58.332Z,88.20
2018-01-22T18:56:24.635Z,87.80
2018-01-22T18:58:50.860Z,87.90
2018-01-22T19:01:17.111Z,88.70
2018-01-22T19:03:43.799Z,88.60
2018-01-22T19:06:10.048Z,88.60
2018-01-22T19:08:37.087Z,88.20
2018-01-22T19:11:03.415Z,88.20
2018-01-22T19:13:29.802Z,87.70
2018-01-22T19:15:56.054Z,87.70
2018-01-22T19:18:22.361Z,87.60
2018-01-22T19:20:48.961Z,87.00
2018-01-22T19:23:15.534Z,87.00
2018-01-22T19:25:41.902Z,86.50
2018-01-22T19:28:08.194Z,86.70
2018-01-22T19:30:34.841Z,86.80
2018-01-22T19:33:01.118Z,86.80
2018-01-22T19:35:27.374Z,86.60
2018-01-22T19:37:54.037Z,85.90
2018-01-22T19:40:20.379Z,85.90
2018-01-22T19:42:47.510Z,85.90
2018-01-22T19:45:14.129Z,86.10
2018-01-22T19:47:40.767Z,85.90
2018-01-22T19:50:07.401Z,87.00
2018-01-22T19:52:33.823Z,87.00
2018-01-22T19:55:00.132Z,87.20
2018-01-22T19:57:26.816Z,87.40
2018-01-22T19:59:53.108Z,88.20
2018-01-22T20:02:20.039Z,88.20
2018-01-22T20:04:46.366Z,88.50
2018-01-22T20:07:12.820Z,88.00
2018-01-22T20:09:39.188Z,88.00
2018-01-22T20:12:05.507Z,88.10
2018-01-22T20:14:32.190Z,86.90
2018-01-22T20:16:58.478Z,86.90
2018-01-22T20:19:25.149Z,87.20
2018-01-22T20:21:51.442Z,87.20
2018-01-22T20:24:17.761Z,86.70
2018-01-22T20:26:44.084Z,86.10
2018-01-22T20:29:10.394Z,85.90
2018-01-22T20:31:36.756Z,85.50
2018-01-22T20:34:03.082Z,85.60
2018-01-22T20:36:29.355Z,85.40
2018-01-22T20:38:55.589Z,85.90
2018-01-22T20:41:21.837Z,85.90
2018-01-22T20:43:48.157Z,85.90
2018-01-22T20:46:14.510Z,86.40
2018-01-22T20:48:40.858Z,86.50
2018-01-22T20:51:07.107Z,87.00
2018-01-22T20:53:33.447Z,86.60
2018-01-22T20:56:00.104Z,87.70
2018-01-22T20:58:26.519Z,87.70
2018-01-22T21:00:52.767Z,87.20
2018-01-22T21:03:18.998Z,86.70
2018-01-22T21:05:45.311Z,86.50
2018-01-22T21:08:11.565Z,86.20
2018-01-22T21:10:37.855Z,87.20
2018-01-22T21:13:04.475Z,86.90
2018-01-22T21:15:31.136Z,86.90
2018-01-22T21:17:57.783Z,86.30
2018-01-22T21:20:24.046Z,86.30
2018-01-22T21:22:50.387Z,86.30
2018-01-22T21:25:16.737Z,86.60
2018-01-22T21:27:42.995Z,86.70
2018-01-22T21:30:12.104Z,86.40
2018-01-22T21:32:38.370Z,85.90
2018-01-22T21:35:04.615Z,85.90
2018-01-22T21:37:30.927Z,85.80
2018-01-22T21:39:57.172Z,85.60
2018-01-22T21:42:24.605Z,85.00
2018-01-22T21:44:50.873Z,85.30
2018-01-22T21:47:17.116Z,84.90
2018-01-22T21:49:43.720Z,84.00
2018-01-22T21:52:09.953Z,84.00
2018-01-22T21:54:36.774Z,85.40
2018-01-22T21:57:03.049Z,84.40
2018-01-22T21:59:29.299Z,85.30
2018-01-22T22:01:55.542Z,84.90
2018-01-22T22:04:21.798Z,84.90
2018-01-22T22:06:48.583Z,84.30
2018-01-22T22:09:14.794Z,85.20
2018-01-22T22:11:41.043Z,85.50
2018-01-22T22:14:07.282Z,83.90
2018-01-22T22:16:33.497Z,83.40
2018-01-22T22:18:59.793Z,82.40
2018-01-22T22:21:26.034Z,82.50
2018-01-22T22:23:52.682Z,82.90
2018-01-22T22:26:19.297Z,82.30
2018-01-22T22:28:45.581Z,82.30
2018-01-22T22:31:12.828Z,82.30
2018-01-22T22:33:39.097Z,82.10
2018-01-22T22:36:05.335Z,82.40
2018-01-22T22:38:31.545Z,82.80
2018-01-22T22:40:58.772Z,82.90
2018-01-22T22:43:25.001Z,82.20
2018-01-22T22:45:51.269Z,82.60
2018-01-22T22:48:17.534Z,82.00
2018-01-22T22:50:43.780Z,81.90
2018-01-22T22:53:10.035Z,82.60
2018-01-22T22:55:36.248Z,82.80
2018-01-22T22:58:02.577Z,83.00
2018-01-22T23:00:28.814Z,83.10
2018-01-22T23:02:55.030Z,83.10
2018-01-22T23:05:21.288Z,82.80
2018-01-22T23:07:47.552Z,83.50
2018-01-22T23:10:13.805Z,84.30
2018-01-22T23:12:40.048Z,83.60
2018-01-22T23:15:06.312Z,83.60
2018-01-22T23:17:32.509Z,83.60
2018-01-22T23:19:58.731Z,83.80
2018-01-22T23:22:24.953Z,83.90
2018-01-22T23:24:51.186Z,84.30
2018-01-22T23:27:17.444Z,85.30
2018-01-22T23:29:43.679Z,84.60
2018-01-22T23:32:09.876Z,84.70
2018-01-22T23:34:36.105Z,85.20
2018-01-22T23:37:02.324Z,84.90
2018-01-22T23:39:28.540Z,84.40
2018-01-22T23:41:54.810Z,84.60
2018-01-22T23:44:21.436Z,86.10
2018-01-22T23:46:47.676Z,86.10
2018-01-22T23:49:13.897Z,85.80
2018-01-22T23:51:40.213Z,85.40
2018-01-22T23:54:06.571Z,86.10
2018-01-22T23:56:32.872Z,85.30
2018-01-22T23:58:59.065Z,84.20
